createdAt,value
2023-05-02T00:02:20.004Z,1.38
2023-05-02T00:05:24.251Z,1.77
2023-05-02T00:08:28.553Z,2.00
2023-05-02T00:11:32.727Z,1.58
2023-05-02T00:14:36.983Z,1.50
2023-05-02T00:17:41.395Z,1.50
2023-05-02T00:20:45.470Z,1.33
2023-05-02T00:23:49.690Z,1.40
2023-05-02T00:26:54.057Z,1.40
2023-05-02T00:29:58.807Z,1.30
2023-05-02T00:33:03.332Z,1.60
2023-05-02T00:36:07.657Z,2.00
2023-05-02T00:39:12.057Z,1.70
2023-05-02T00:42:16.266Z,1.50
2023-05-02T00:45:20.686Z,1.80
2023-05-02T00:48:25.075Z,2.55
2023-05-02T00:51:29.275Z,1.77
2023-05-02T00:54:33.682Z,1.83
2023-05-02T00:57:38.088Z,1.98
2023-05-02T01:00:42.407Z,2.13
2023-05-02T01:03:46.836Z,2.05
2023-05-02T01:06:51.250Z,2.03
2023-05-02T01:09:55.401Z,1.70
2023-05-02T01:12:59.693Z,2.67
2023-05-02T01:16:04.133Z,1.65
2023-05-02T01:19:08.620Z,1.83
2023-05-02T01:22:12.640Z,1.58
2023-05-02T01:25:16.878Z,1.80
2023-05-02T01:28:21.304Z,1.90
2023-05-02T01:31:25.683Z,1.95
2023-05-02T01:34:30.087Z,1.92
2023-05-02T01:37:34.218Z,1.60
2023-05-02T01:40:38.535Z,1.77
2023-05-02T01:43:42.967Z,2.05
2023-05-02T01:46:47.492Z,1.70
2023-05-02T01:49:51.861Z,1.77
2023-05-02T01:52:56.317Z,1.40
2023-05-02T01:56:00.557Z,1.80
2023-05-02T01:59:04.889Z,1.73
2023-05-02T02:02:09.267Z,1.90
2023-05-02T02:05:13.769Z,2.30
2023-05-02T02:08:17.874Z,1.95
2023-05-02T02:11:22.067Z,1.52
2023-05-02T02:14:26.289Z,1.50
2023-05-02T02:17:30.606Z,2.10
2023-05-02T02:20:34.908Z,1.63
2023-05-02T02:23:39.338Z,1.73
2023-05-02T02:26:43.648Z,1.55
2023-05-02T02:29:47.977Z,2.08
2023-05-02T02:32:52.462Z,1.92
2023-05-02T02:35:56.803Z,1.88
2023-05-02T02:39:00.971Z,2.20
2023-05-02T02:42:05.025Z,2.08
2023-05-02T02:45:09.308Z,2.20
2023-05-02T02:48:13.849Z,1.98
2023-05-02T02:51:18.311Z,2.35
2023-05-02T02:54:26.926Z,2.20
2023-05-02T02:57:31.955Z,2.22
2023-05-02T03:00:36.047Z,2.22
2023-05-02T03:03:40.422Z,2.25
2023-05-02T03:06:45.027Z,2.33
2023-05-02T03:09:49.461Z,2.28
2023-05-02T03:12:53.414Z,2.03
2023-05-02T03:15:57.585Z,2.08
2023-05-02T03:19:02.133Z,2.20
2023-05-02T03:22:06.710Z,1.95
2023-05-02T03:25:10.985Z,1.80
2023-05-02T03:28:15.049Z,1.52
2023-05-02T03:31:19.251Z,1.25
2023-05-02T03:34:23.539Z,1.52
2023-05-02T03:37:28.007Z,1.42
2023-05-02T03:40:32.397Z,1.65
2023-05-02T03:43:36.482Z,1.60
2023-05-02T03:46:40.711Z,1.80
2023-05-02T03:49:45.062Z,1.73
2023-05-02T03:52:49.311Z,2.10
2023-05-02T03:55:53.470Z,2.38
2023-05-02T03:58:57.653Z,2.08
2023-05-02T04:02:01.988Z,1.92
2023-05-02T04:05:06.343Z,1.92
2023-05-02T04:08:10.438Z,2.03
2023-05-02T04:11:14.695Z,2.30
2023-05-02T04:14:18.626Z,2.22
2023-05-02T04:17:22.958Z,1.98
2023-05-02T04:20:27.312Z,1.80
2023-05-02T04:23:31.385Z,2.25
2023-05-02T04:26:35.650Z,2.20
2023-05-02T04:29:39.919Z,2.03
2023-05-02T04:32:44.280Z,2.10
2023-05-02T04:35:48.471Z,1.92
2023-05-02T04:38:52.788Z,1.75
2023-05-02T04:41:56.953Z,1.73
2023-05-02T04:45:01.050Z,2.10
2023-05-02T04:48:05.331Z,1.92
2023-05-02T04:51:09.822Z,2.35
2023-05-02T04:54:13.990Z,2.10
2023-05-02T04:57:18.114Z,1.83
2023-05-02T05:00:22.259Z,1.90
2023-05-02T05:03:26.694Z,1.92
2023-05-02T05:06:31.069Z,2.03
2023-05-02T05:09:35.441Z,1.92
2023-05-02T05:12:39.535Z,2.00
2023-05-02T05:15:43.778Z,2.05
2023-05-02T05:18:48.004Z,2.60
2023-05-02T05:21:52.268Z,2.25
2023-05-02T05:24:56.574Z,1.92
2023-05-02T05:28:00.639Z,1.92
2023-05-02T05:31:04.804Z,2.35
2023-05-02T05:34:09.185Z,2.15
2023-05-02T05:37:13.563Z,1.55
2023-05-02T05:40:17.927Z,1.90
2023-05-02T05:43:22.019Z,2.05
2023-05-02T05:46:26.304Z,1.73
2023-05-02T05:49:30.783Z,2.53
2023-05-02T05:52:35.034Z,2.03
2023-05-02T05:55:40.881Z,1.90
2023-05-02T05:58:46.466Z,2.28
2023-05-02T06:01:50.530Z,2.03
2023-05-02T06:04:55.103Z,2.03
2023-05-02T06:07:59.613Z,2.20
2023-05-02T06:11:03.721Z,2.40
2023-05-02T06:14:07.896Z,1.98
2023-05-02T06:17:12.292Z,3.22
2023-05-02T06:20:17.448Z,2.03
2023-05-02T06:23:22.903Z,2.60
2023-05-02T06:26:27.350Z,2.95
2023-05-02T06:29:31.344Z,2.42
2023-05-02T06:32:35.616Z,3.00
2023-05-02T06:35:40.070Z,2.60
2023-05-02T06:38:44.380Z,3.05
2023-05-02T06:41:48.819Z,2.97
2023-05-02T06:44:53.409Z,2.38
2023-05-02T06:47:57.652Z,3.35
2023-05-02T06:51:01.890Z,3.30
2023-05-02T06:54:06.015Z,3.38
2023-05-02T06:57:10.378Z,2.08
2023-05-02T07:00:14.754Z,3.22
2023-05-02T07:03:19.008Z,3.35
2023-05-02T07:06:23.218Z,3.33
2023-05-02T07:09:27.893Z,2.75
2023-05-02T07:12:32.391Z,3.25
2023-05-02T07:15:36.885Z,2.75
2023-05-02T07:18:40.968Z,2.70
2023-05-02T07:21:45.388Z,3.10
2023-05-02T07:24:49.857Z,2.58
2023-05-02T07:27:54.395Z,3.17
2023-05-02T07:30:58.571Z,3.03
2023-05-02T07:34:02.726Z,2.85
2023-05-02T07:37:07.362Z,3.00
2023-05-02T07:40:11.545Z,3.33
2023-05-02T07:43:16.141Z,2.90
2023-05-02T07:46:20.436Z,3.58
2023-05-02T07:49:24.730Z,2.97
2023-05-02T07:52:29.137Z,2.47
2023-05-02T07:55:33.569Z,4.45
2023-05-02T07:58:38.027Z,4.50
2023-05-02T08:01:42.626Z,2.25
2023-05-02T08:04:46.822Z,1.95
2023-05-02T08:07:51.233Z,0.93
2023-05-02T08:10:55.677Z,3.35
2023-05-02T08:14:00.108Z,3.25
2023-05-02T08:17:04.421Z,2.97
2023-05-02T08:20:08.585Z,3.60
2023-05-02T08:23:12.698Z,3.85
2023-05-02T08:26:16.875Z,4.07
2023-05-02T08:29:21.489Z,3.13
2023-05-02T08:32:25.694Z,3.58
2023-05-02T08:35:30.068Z,1.95
2023-05-02T08:38:34.398Z,1.45
2023-05-02T08:41:39.117Z,3.22
2023-05-02T08:44:43.483Z,3.35
2023-05-02T08:47:47.788Z,2.35
2023-05-02T08:50:51.926Z,2.80
2023-05-02T08:53:56.377Z,3.85
2023-05-02T08:57:00.808Z,3.20
2023-05-02T09:00:05.355Z,3.67
2023-05-02T09:03:09.632Z,3.38
2023-05-02T09:06:14.013Z,3.42
2023-05-02T09:09:19.206Z,4.15
2023-05-02T09:12:24.247Z,3.70
2023-05-02T09:15:28.512Z,3.28
2023-05-02T09:18:33.153Z,4.45
2023-05-02T09:21:37.288Z,3.85
2023-05-02T09:24:41.453Z,3.00
2023-05-02T09:27:45.926Z,3.15
2023-05-02T09:30:50.270Z,3.33
2023-05-02T09:33:54.424Z,3.15
2023-05-02T09:36:58.650Z,3.60
2023-05-02T09:40:02.755Z,2.05
2023-05-02T09:43:06.927Z,3.22
2023-05-02T09:46:11.446Z,2.05
2023-05-02T09:49:15.758Z,3.33
2023-05-02T09:52:19.996Z,3.45
2023-05-02T09:55:24.230Z,1.95
2023-05-02T09:58:28.564Z,1.58
2023-05-02T10:01:32.955Z,2.88
2023-05-02T10:04:37.288Z,1.77
2023-05-02T10:07:41.686Z,2.00
2023-05-02T10:10:46.155Z,1.52
2023-05-02T10:13:50.528Z,3.10
2023-05-02T10:16:54.937Z,2.58
2023-05-02T10:19:59.214Z,2.85
2023-05-02T10:23:03.276Z,2.92
2023-05-02T10:26:07.650Z,2.78
2023-05-02T10:29:11.864Z,2.95
2023-05-02T10:32:16.076Z,0.95
2023-05-02T10:35:20.612Z,1.48
2023-05-02T10:38:25.010Z,1.50
2023-05-02T10:41:29.481Z,1.38
2023-05-02T10:44:34.627Z,0.88
2023-05-02T10:47:38.960Z,2.65
2023-05-02T10:50:43.317Z,0.70
2023-05-02T10:53:47.441Z,2.70
2023-05-02T10:56:51.761Z,2.35
2023-05-02T10:59:56.224Z,1.63
2023-05-02T11:03:00.748Z,1.95
2023-05-02T11:06:04.942Z,2.38
2023-05-02T11:09:09.081Z,0.70
2023-05-02T11:12:13.392Z,2.22
2023-05-02T11:15:17.845Z,1.60
2023-05-02T11:18:22.278Z,0.57
2023-05-02T11:21:26.690Z,2.65
2023-05-02T11:24:30.791Z,1.85
2023-05-02T11:27:35.131Z,2.40
2023-05-02T11:30:39.508Z,2.70
2023-05-02T11:33:44.003Z,2.40
2023-05-02T11:36:48.223Z,1.67
2023-05-02T11:39:52.505Z,2.58
2023-05-02T11:42:56.805Z,2.30
2023-05-02T11:46:01.305Z,2.30
2023-05-02T11:49:06.981Z,2.50
2023-05-02T11:52:13.294Z,2.65
2023-05-02T11:55:17.823Z,2.78
2023-05-02T11:58:22.194Z,2.20
2023-05-02T12:01:26.423Z,1.42
2023-05-02T12:04:30.708Z,2.55
2023-05-02T12:07:35.088Z,2.35
2023-05-02T12:10:39.196Z,2.85
2023-05-02T12:13:43.743Z,2.67
2023-05-02T12:16:48.043Z,2.10
2023-05-02T12:19:52.960Z,2.40
2023-05-02T12:22:57.390Z,1.70
2023-05-02T12:26:01.695Z,0.38
2023-05-02T12:29:05.970Z,0.00
2023-05-02T12:32:10.135Z,1.77
2023-05-02T12:35:14.774Z,1.73
2023-05-02T12:38:19.259Z,1.65
2023-05-02T12:41:24.066Z,1.48
2023-05-02T12:44:47.416Z,1.70
2023-05-02T12:47:51.843Z,2.17
2023-05-02T12:50:56.229Z,1.52
2023-05-02T12:54:00.408Z,2.25
2023-05-02T12:57:04.905Z,2.10
2023-05-02T13:00:09.208Z,2.25
2023-05-02T13:03:13.418Z,1.33
2023-05-02T13:06:17.724Z,1.60
2023-05-02T13:09:22.057Z,1.15
2023-05-02T13:12:26.457Z,1.83
2023-05-02T13:15:30.818Z,1.48
2023-05-02T13:18:35.066Z,1.85
2023-05-02T13:21:39.534Z,2.15
2023-05-02T13:24:45.095Z,1.60
2023-05-02T13:27:50.782Z,1.77
2023-05-02T13:30:55.330Z,1.67
2023-05-02T13:33:59.699Z,1.52
2023-05-02T13:37:03.860Z,1.55
2023-05-02T13:40:08.281Z,1.67
2023-05-02T13:43:12.652Z,1.75
2023-05-02T13:46:17.163Z,1.30
2023-05-02T13:49:21.395Z,0.35
2023-05-02T13:52:25.562Z,1.60
2023-05-02T13:55:29.881Z,1.33
2023-05-02T13:58:34.138Z,1.42
2023-05-02T14:01:38.847Z,1.45
2023-05-02T14:04:43.092Z,1.80
2023-05-02T14:07:47.320Z,1.77
2023-05-02T14:10:51.680Z,0.93
2023-05-02T14:13:55.985Z,1.23
2023-05-02T14:17:00.301Z,0.70
2023-05-02T14:20:04.918Z,1.13
2023-05-02T14:23:09.226Z,0.00
2023-05-02T14:26:13.816Z,1.63
2023-05-02T14:29:18.294Z,1.17
2023-05-02T14:32:22.487Z,0.80
2023-05-02T14:35:26.933Z,0.63
2023-05-02T14:38:30.958Z,0.77
2023-05-02T14:41:35.225Z,1.73
2023-05-02T14:44:39.501Z,0.85
2023-05-02T14:47:43.884Z,1.73
2023-05-02T14:50:48.070Z,1.10
2023-05-02T14:53:52.707Z,1.90
2023-05-02T14:56:57.164Z,0.90
2023-05-02T15:00:01.822Z,1.38
2023-05-02T15:03:07.958Z,1.30
2023-05-02T15:06:12.973Z,1.55
2023-05-02T15:09:17.395Z,1.67
2023-05-02T15:12:21.649Z,1.35
2023-05-02T15:15:26.039Z,1.05
2023-05-02T15:18:30.514Z,1.55
2023-05-02T15:21:34.853Z,1.50
2023-05-02T15:24:39.319Z,1.17
2023-05-02T15:27:43.579Z,1.50
2023-05-02T15:30:48.068Z,1.20
2023-05-02T15:33:52.568Z,1.65
2023-05-02T15:36:57.949Z,1.65
2023-05-02T15:40:02.633Z,1.65
2023-05-02T15:43:06.987Z,1.33
2023-05-02T15:46:11.327Z,1.80
2023-05-02T15:49:15.801Z,1.40
2023-05-02T15:52:20.078Z,1.30
2023-05-02T15:55:24.483Z,1.38
2023-05-02T15:58:28.761Z,1.55
2023-05-02T16:01:33.065Z,1.35
2023-05-02T16:04:37.466Z,1.65
2023-05-02T16:07:41.741Z,1.10
2023-05-02T16:10:46.110Z,1.50
2023-05-02T16:13:50.246Z,1.70
2023-05-02T16:16:54.605Z,1.70
2023-05-02T16:19:59.045Z,1.33
2023-05-02T16:23:03.732Z,1.63
2023-05-02T16:26:08.184Z,2.53
2023-05-02T16:29:12.532Z,2.30
2023-05-02T16:32:16.875Z,2.17
2023-05-02T16:35:21.341Z,1.63
2023-05-02T16:38:25.713Z,2.05
2023-05-02T16:41:30.294Z,1.48
2023-05-02T16:44:34.662Z,1.80
2023-05-02T16:47:38.794Z,1.38
2023-05-02T16:50:43.372Z,1.80
2023-05-02T16:53:47.918Z,1.85
2023-05-02T16:56:52.389Z,1.60
2023-05-02T16:59:56.620Z,1.85
2023-05-02T17:03:02.284Z,2.05
2023-05-02T17:06:07.951Z,3.72
2023-05-02T17:09:12.284Z,1.92
2023-05-02T17:12:16.855Z,1.75
2023-05-02T17:15:21.143Z,1.63
2023-05-02T17:18:25.398Z,1.27
2023-05-02T17:21:29.813Z,1.65
2023-05-02T17:24:34.004Z,1.08
2023-05-02T17:27:41.009Z,1.30
2023-05-02T17:30:45.707Z,1.55
2023-05-02T17:33:50.105Z,1.63
2023-05-02T17:36:54.590Z,1.50
2023-05-02T17:39:58.798Z,1.70
2023-05-02T17:43:03.216Z,1.88
2023-05-02T17:46:07.846Z,1.95
2023-05-02T17:49:12.149Z,2.22
2023-05-02T17:52:16.266Z,2.13
2023-05-02T17:55:20.458Z,2.50
2023-05-02T17:58:24.732Z,1.67
2023-05-02T18:01:29.191Z,1.20
2023-05-02T18:04:33.688Z,1.85
2023-05-02T18:07:38.275Z,1.52
2023-05-02T18:10:42.404Z,1.92
2023-05-02T18:13:46.904Z,1.70
2023-05-02T18:16:51.293Z,2.00
2023-05-02T18:19:55.652Z,1.35
2023-05-02T18:22:59.743Z,1.60
2023-05-02T18:26:04.042Z,1.70
2023-05-02T18:29:08.192Z,2.03
2023-05-02T18:32:12.701Z,1.77
2023-05-02T18:35:17.105Z,1.88
2023-05-02T18:38:21.404Z,1.85
2023-05-02T18:41:25.733Z,2.33
2023-05-02T18:44:29.854Z,2.17
2023-05-02T18:47:34.069Z,2.38
2023-05-02T18:50:38.575Z,1.83
2023-05-02T18:53:43.029Z,1.67
2023-05-02T18:56:47.375Z,1.65
2023-05-02T18:59:51.815Z,2.00
2023-05-02T19:02:56.178Z,2.38
2023-05-02T19:06:00.600Z,2.22
2023-05-02T19:09:04.720Z,2.08
2023-05-02T19:12:08.969Z,2.13
2023-05-02T19:15:13.194Z,2.75
2023-05-02T19:18:17.926Z,2.20
2023-05-02T19:21:22.483Z,1.83
2023-05-02T19:24:26.610Z,1.95
2023-05-02T19:27:30.881Z,2.47
2023-05-02T19:30:35.167Z,2.55
2023-05-02T19:33:39.523Z,2.58
2023-05-02T19:36:43.723Z,2.30
2023-05-02T19:39:48.026Z,2.10
2023-05-02T19:42:56.568Z,2.25
2023-05-02T19:48:46.504Z,2.17
2023-05-02T19:51:50.703Z,2.40
2023-05-02T19:54:54.903Z,2.28
2023-05-02T19:57:59.228Z,2.60
2023-05-02T20:01:03.819Z,2.47
2023-05-02T20:04:08.160Z,1.52
2023-05-02T20:07:12.399Z,2.13
2023-05-02T20:10:16.650Z,2.70
2023-05-02T20:13:20.615Z,3.20
2023-05-02T20:16:24.818Z,2.60
2023-05-02T20:19:29.129Z,2.50
2023-05-02T20:22:33.383Z,3.22
2023-05-02T20:25:37.611Z,2.40
2023-05-02T20:28:42.097Z,2.70
2023-05-02T20:31:46.362Z,3.05
2023-05-02T20:34:51.147Z,2.55
2023-05-02T20:37:55.584Z,2.47
2023-05-02T20:40:59.945Z,2.60
2023-05-02T20:44:04.240Z,2.92
2023-05-02T20:47:08.628Z,2.03
2023-05-02T20:50:13.390Z,2.28
2023-05-02T20:53:17.648Z,2.22
2023-05-02T20:56:21.885Z,2.53
2023-05-02T20:59:26.000Z,2.70
2023-05-02T21:02:30.432Z,2.65
2023-05-02T21:05:35.099Z,2.67
2023-05-02T21:08:40.143Z,2.45
2023-05-02T21:11:44.461Z,2.38
2023-05-02T21:14:48.982Z,2.78
2023-05-02T21:17:53.430Z,2.53
2023-05-02T21:20:58.023Z,2.67
2023-05-02T21:24:02.236Z,2.40
2023-05-02T21:27:06.869Z,2.90
2023-05-02T21:30:11.042Z,2.90
2023-05-02T21:33:15.129Z,2.80
2023-05-02T21:36:19.809Z,3.08
2023-05-02T21:39:24.238Z,3.15
2023-05-02T21:42:28.436Z,2.50
2023-05-02T21:45:32.741Z,3.00
2023-05-02T21:48:37.007Z,3.00
2023-05-02T21:51:41.397Z,2.88
2023-05-02T21:54:45.495Z,2.53
2023-05-02T21:57:50.117Z,2.90
2023-05-02T22:00:54.806Z,2.63
2023-05-02T22:03:59.350Z,2.60
2023-05-02T22:07:03.858Z,2.30
2023-05-02T22:10:08.007Z,2.22
2023-05-02T22:13:12.614Z,2.25
2023-05-02T22:16:16.720Z,2.25
2023-05-02T22:19:20.999Z,2.20
2023-05-02T22:22:25.379Z,2.65
2023-05-02T22:25:29.813Z,2.22
2023-05-02T22:28:34.017Z,2.47
2023-05-02T22:31:38.084Z,2.40
2023-05-02T22:34:42.657Z,2.50
2023-05-02T22:37:47.078Z,2.60
2023-05-02T22:40:51.433Z,2.03
2023-05-02T22:43:55.847Z,2.10
2023-05-02T22:47:00.234Z,2.45
2023-05-02T22:50:04.890Z,2.38
2023-05-02T22:53:09.694Z,2.40
2023-05-02T22:56:13.994Z,2.10
2023-05-02T22:59:18.212Z,2.63
2023-05-02T23:02:22.402Z,2.50
2023-05-02T23:05:26.669Z,2.50
2023-05-02T23:08:31.299Z,2.65
2023-05-02T23:11:35.797Z,2.30
2023-05-02T23:14:39.886Z,2.60
2023-05-02T23:17:44.168Z,2.40
2023-05-02T23:20:48.589Z,2.60
2023-05-02T23:23:52.977Z,2.22
2023-05-02T23:26:57.316Z,2.80
2023-05-02T23:30:01.697Z,3.30
2023-05-02T23:33:06.125Z,2.45
2023-05-02T23:36:10.431Z,2.08
2023-05-02T23:39:14.779Z,2.40
2023-05-02T23:42:19.232Z,2.60
2023-05-02T23:45:23.435Z,2.60
2023-05-02T23:48:27.814Z,2.70
2023-05-02T23:51:32.223Z,2.03
2023-05-02T23:54:36.621Z,2.42
2023-05-02T23:57:41.061Z,2.50
